sensor_id;sensor_type;location;lat;lon;timestamp;P1;durP1;ratioP1;P2;durP2;ratioP2
34832;SDS011;55941;50.800;4.342;2022-07-22T00:01:04;18.52;;;3.30;;
34832;SDS011;55941;50.800;4.342;2022-07-22T00:03:31;15.38;;;3.35;;
34832;SDS011;55941;50.800;4.342;2022-07-22T00:05:57;19.23;;;2.95;;
34832;SDS011;55941;50.800;4.342;2022-07-22T00:08:23;18.30;;;4.35;;
34832;SDS011;55941;50.800;4.342;2022-07-22T00:10:48;17.73;;;3.45;;
34832;SDS011;55941;50.800;4.342;2022-07-22T00:13:14;17.52;;;3.33;;
34832;SDS011;55941;50.800;4.342;2022-07-22T00:15:40;19.70;;;3.42;;
34832;SDS011;55941;50.800;4.342;2022-07-22T00:18:05;15.43;;;3.10;;
34832;SDS011;55941;50.800;4.342;2022-07-22T00:20:31;16.95;;;3.38;;
34832;SDS011;55941;50.800;4.342;2022-07-22T00:22:57;18.58;;;3.20;;
34832;SDS011;55941;50.800;4.342;2022-07-22T00:25:24;15.52;;;3.42;;
34832;SDS011;55941;50.800;4.342;2022-07-22T00:27:50;16.00;;;3.42;;
34832;SDS011;55941;50.800;4.342;2022-07-22T00:30:15;13.27;;;2.95;;
34832;SDS011;55941;50.800;4.342;2022-07-22T00:32:41;18.55;;;3.30;;
34832;SDS011;55941;50.800;4.342;2022-07-22T00:35:07;17.20;;;3.53;;
34832;SDS011;55941;50.800;4.342;2022-07-22T00:37:34;15.73;;;3.15;;
34832;SDS011;55941;50.800;4.342;2022-07-22T00:40:00;14.27;;;3.47;;
34832;SDS011;55941;50.800;4.342;2022-07-22T00:42:26;22.25;;;3.75;;
34832;SDS011;55941;50.800;4.342;2022-07-22T00:44:51;16.40;;;3.47;;
34832;SDS011;55941;50.800;4.342;2022-07-22T00:47:17;17.02;;;3.17;;
34832;SDS011;55941;50.800;4.342;2022-07-22T00:49:43;17.77;;;3.53;;
34832;SDS011;55941;50.800;4.342;2022-07-22T00:52:08;12.05;;;3.47;;
34832;SDS011;55941;50.800;4.342;2022-07-22T00:54:36;18.10;;;3.25;;
34832;SDS011;55941;50.800;4.342;2022-07-22T00:57:03;25.73;;;3.60;;
34832;SDS011;55941;50.800;4.342;2022-07-22T00:59:29;16.90;;;3.13;;
34832;SDS011;55941;50.800;4.342;2022-07-22T01:01:55;18.33;;;3.72;;
34832;SDS011;55941;50.800;4.342;2022-07-22T01:04:20;10.50;;;3.38;;
34832;SDS011;55941;50.800;4.342;2022-07-22T01:06:46;13.32;;;3.13;;
34832;SDS011;55941;50.800;4.342;2022-07-22T01:09:12;15.82;;;3.53;;
34832;SDS011;55941;50.800;4.342;2022-07-22T01:11:39;17.52;;;3.67;;
34832;SDS011;55941;50.800;4.342;2022-07-22T01:14:06;13.02;;;3.20;;
34832;SDS011;55941;50.800;4.342;2022-07-22T01:16:32;22.90;;;3.45;;
34832;SDS011;55941;50.800;4.342;2022-07-22T01:18:58;17.60;;;3.60;;
34832;SDS011;55941;50.800;4.342;2022-07-22T01:21:24;17.38;;;3.55;;
34832;SDS011;55941;50.800;4.342;2022-07-22T01:23:50;10.35;;;2.88;;
34832;SDS011;55941;50.800;4.342;2022-07-22T01:26:16;13.05;;;3.35;;
34832;SDS011;55941;50.800;4.342;2022-07-22T01:28:42;14.35;;;3.28;;
34832;SDS011;55941;50.800;4.342;2022-07-22T01:31:08;14.98;;;3.20;;
34832;SDS011;55941;50.800;4.342;2022-07-22T01:33:34;12.82;;;3.25;;
34832;SDS011;55941;50.800;4.342;2022-07-22T01:36:01;13.10;;;3.78;;
34832;SDS011;55941;50.800;4.342;2022-07-22T01:38:28;14.00;;;3.22;;
34832;SDS011;55941;50.800;4.342;2022-07-22T01:40:53;15.85;;;3.60;;
34832;SDS011;55941;50.800;4.342;2022-07-22T01:43:19;16.33;;;4.15;;
34832;SDS011;55941;50.800;4.342;2022-07-22T01:45:46;15.80;;;3.47;;
34832;SDS011;55941;50.800;4.342;2022-07-22T01:48:16;14.88;;;3.55;;
34832;SDS011;55941;50.800;4.342;2022-07-22T01:50:42;20.88;;;3.90;;
34832;SDS011;55941;50.800;4.342;2022-07-22T01:53:08;12.10;;;3.25;;
34832;SDS011;55941;50.800;4.342;2022-07-22T01:55:34;17.15;;;3.33;;
34832;SDS011;55941;50.800;4.342;2022-07-22T01:58:00;17.13;;;4.03;;
34832;SDS011;55941;50.800;4.342;2022-07-22T02:00:27;16.55;;;3.88;;
34832;SDS011;55941;50.800;4.342;2022-07-22T02:02:53;16.05;;;3.00;;
34832;SDS011;55941;50.800;4.342;2022-07-22T02:05:19;15.05;;;3.28;;
34832;SDS011;55941;50.800;4.342;2022-07-22T02:07:44;12.50;;;3.63;;
34832;SDS011;55941;50.800;4.342;2022-07-22T02:10:10;17.67;;;3.83;;
34832;SDS011;55941;50.800;4.342;2022-07-22T02:12:36;13.93;;;3.63;;
34832;SDS011;55941;50.800;4.342;2022-07-22T02:15:02;18.88;;;4.47;;
34832;SDS011;55941;50.800;4.342;2022-07-22T02:17:28;15.15;;;3.60;;
34832;SDS011;55941;50.800;4.342;2022-07-22T02:19:54;16.20;;;3.83;;
34832;SDS011;55941;50.800;4.342;2022-07-22T02:22:20;15.38;;;3.70;;
34832;SDS011;55941;50.800;4.342;2022-07-22T02:24:45;23.15;;;3.88;;
34832;SDS011;55941;50.800;4.342;2022-07-22T02:27:11;24.90;;;4.45;;
34832;SDS011;55941;50.800;4.342;2022-07-22T02:29:37;14.32;;;3.35;;
34832;SDS011;55941;50.800;4.342;2022-07-22T02:32:03;16.00;;;3.65;;
34832;SDS011;55941;50.800;4.342;2022-07-22T02:34:29;20.13;;;3.95;;
34832;SDS011;55941;50.800;4.342;2022-07-22T02:36:54;15.32;;;3.70;;
34832;SDS011;55941;50.800;4.342;2022-07-22T02:39:20;15.90;;;3.40;;
34832;SDS011;55941;50.800;4.342;2022-07-22T02:41:46;14.70;;;3.40;;
34832;SDS011;55941;50.800;4.342;2022-07-22T02:44:12;16.65;;;3.42;;
34832;SDS011;55941;50.800;4.342;2022-07-22T02:46:38;17.77;;;3.97;;
34832;SDS011;55941;50.800;4.342;2022-07-22T02:49:03;17.42;;;4.00;;
34832;SDS011;55941;50.800;4.342;2022-07-22T02:51:30;18.67;;;3.40;;
34832;SDS011;55941;50.800;4.342;2022-07-22T02:53:56;13.75;;;3.03;;
34832;SDS011;55941;50.800;4.342;2022-07-22T02:56:22;22.35;;;3.58;;
34832;SDS011;55941;50.800;4.342;2022-07-22T02:58:47;21.60;;;3.30;;
34832;SDS011;55941;50.800;4.342;2022-07-22T03:01:17;18.92;;;3.53;;
34832;SDS011;55941;50.800;4.342;2022-07-22T03:03:44;16.60;;;3.58;;
34832;SDS011;55941;50.800;4.342;2022-07-22T03:06:10;13.73;;;3.10;;
34832;SDS011;55941;50.800;4.342;2022-07-22T03:08:36;18.88;;;3.30;;
34832;SDS011;55941;50.800;4.342;2022-07-22T03:11:02;18.00;;;3.58;;
34832;SDS011;55941;50.800;4.342;2022-07-22T03:13:28;21.90;;;3.67;;
34832;SDS011;55941;50.800;4.342;2022-07-22T03:15:54;19.98;;;3.67;;
34832;SDS011;55941;50.800;4.342;2022-07-22T03:18:20;15.10;;;3.30;;
34832;SDS011;55941;50.800;4.342;2022-07-22T03:20:46;12.93;;;3.42;;
34832;SDS011;55941;50.800;4.342;2022-07-22T03:23:12;14.50;;;3.10;;
34832;SDS011;55941;50.800;4.342;2022-07-22T03:25:37;15.73;;;3.30;;
34832;SDS011;55941;50.800;4.342;2022-07-22T03:28:04;21.10;;;3.85;;
34832;SDS011;55941;50.800;4.342;2022-07-22T03:30:30;20.65;;;3.75;;
34832;SDS011;55941;50.800;4.342;2022-07-22T03:32:56;14.43;;;3.45;;
34832;SDS011;55941;50.800;4.342;2022-07-22T03:35:22;20.73;;;3.95;;
34832;SDS011;55941;50.800;4.342;2022-07-22T03:37:47;16.90;;;3.78;;
34832;SDS011;55941;50.800;4.342;2022-07-22T03:40:13;23.35;;;3.47;;
34832;SDS011;55941;50.800;4.342;2022-07-22T03:42:39;19.85;;;3.75;;
34832;SDS011;55941;50.800;4.342;2022-07-22T03:45:05;16.85;;;4.05;;
34832;SDS011;55941;50.800;4.342;2022-07-22T03:47:31;23.48;;;3.92;;
34832;SDS011;55941;50.800;4.342;2022-07-22T03:49:57;17.08;;;3.25;;
34832;SDS011;55941;50.800;4.342;2022-07-22T03:52:23;17.73;;;4.68;;
34832;SDS011;55941;50.800;4.342;2022-07-22T03:54:50;18.35;;;3.47;;
34832;SDS011;55941;50.800;4.342;2022-07-22T03:57:16;13.52;;;3.22;;
34832;SDS011;55941;50.800;4.342;2022-07-22T03:59:42;20.35;;;4.18;;
34832;SDS011;55941;50.800;4.342;2022-07-22T04:02:07;20.15;;;4.22;;
34832;SDS011;55941;50.800;4.342;2022-07-22T04:04:33;16.27;;;3.63;;
34832;SDS011;55941;50.800;4.342;2022-07-22T04:06:59;17.90;;;4.07;;
34832;SDS011;55941;50.800;4.342;2022-07-22T04:09:24;15.48;;;3.70;;
34832;SDS011;55941;50.800;4.342;2022-07-22T04:11:50;24.27;;;4.50;;
34832;SDS011;55941;50.800;4.342;2022-07-22T04:14:16;18.45;;;3.40;;
34832;SDS011;55941;50.800;4.342;2022-07-22T04:16:42;22.40;;;4.25;;
34832;SDS011;55941;50.800;4.342;2022-07-22T04:19:11;14.95;;;3.65;;
34832;SDS011;55941;50.800;4.342;2022-07-22T04:21:36;15.75;;;4.03;;
34832;SDS011;55941;50.800;4.342;2022-07-22T04:24:02;19.52;;;3.85;;
34832;SDS011;55941;50.800;4.342;2022-07-22T04:26:28;18.17;;;3.55;;
34832;SDS011;55941;50.800;4.342;2022-07-22T04:28:54;13.40;;;3.35;;
34832;SDS011;55941;50.800;4.342;2022-07-22T04:31:20;14.68;;;3.17;;
34832;SDS011;55941;50.800;4.342;2022-07-22T04:33:45;12.13;;;3.75;;
34832;SDS011;55941;50.800;4.342;2022-07-22T04:36:11;18.15;;;3.50;;
34832;SDS011;55941;50.800;4.342;2022-07-22T04:38:37;15.07;;;3.92;;
34832;SDS011;55941;50.800;4.342;2022-07-22T04:41:03;17.40;;;3.70;;
34832;SDS011;55941;50.800;4.342;2022-07-22T04:43:29;13.30;;;3.65;;
34832;SDS011;55941;50.800;4.342;2022-07-22T04:45:56;14.20;;;3.58;;
34832;SDS011;55941;50.800;4.342;2022-07-22T04:48:21;15.75;;;3.72;;
34832;SDS011;55941;50.800;4.342;2022-07-22T04:50:47;15.35;;;3.88;;
34832;SDS011;55941;50.800;4.342;2022-07-22T04:53:13;14.35;;;3.60;;
34832;SDS011;55941;50.800;4.342;2022-07-22T04:55:39;24.90;;;3.63;;
34832;SDS011;55941;50.800;4.342;2022-07-22T04:58:05;18.23;;;4.00;;
34832;SDS011;55941;50.800;4.342;2022-07-22T05:00:32;16.30;;;4.00;;
34832;SDS011;55941;50.800;4.342;2022-07-22T05:02:58;22.40;;;4.43;;
34832;SDS011;55941;50.800;4.342;2022-07-22T05:05:24;18.02;;;4.20;;
34832;SDS011;55941;50.800;4.342;2022-07-22T05:07:50;19.90;;;4.43;;
34832;SDS011;55941;50.800;4.342;2022-07-22T05:10:16;19.25;;;3.97;;
34832;SDS011;55941;50.800;4.342;2022-07-22T05:12:42;18.23;;;3.85;;
34832;SDS011;55941;50.800;4.342;2022-07-22T05:15:07;17.67;;;4.03;;
34832;SDS011;55941;50.800;4.342;2022-07-22T05:17:34;15.25;;;5.03;;
34832;SDS011;55941;50.800;4.342;2022-07-22T05:20:01;18.88;;;4.57;;
34832;SDS011;55941;50.800;4.342;2022-07-22T05:22:28;19.40;;;4.32;;
34832;SDS011;55941;50.800;4.342;2022-07-22T05:24:54;19.05;;;4.70;;
34832;SDS011;55941;50.800;4.342;2022-07-22T05:27:20;16.33;;;4.30;;
34832;SDS011;55941;50.800;4.342;2022-07-22T05:29:45;18.33;;;4.85;;
34832;SDS011;55941;50.800;4.342;2022-07-22T05:32:11;18.13;;;5.15;;
34832;SDS011;55941;50.800;4.342;2022-07-22T05:34:37;17.75;;;5.25;;
34832;SDS011;55941;50.800;4.342;2022-07-22T05:37:02;18.85;;;5.15;;
34832;SDS011;55941;50.800;4.342;2022-07-22T05:39:29;23.75;;;5.60;;
34832;SDS011;55941;50.800;4.342;2022-07-22T05:41:55;17.20;;;5.65;;
34832;SDS011;55941;50.800;4.342;2022-07-22T05:44:23;21.88;;;6.32;;
34832;SDS011;55941;50.800;4.342;2022-07-22T05:46:49;25.90;;;6.70;;
34832;SDS011;55941;50.800;4.342;2022-07-22T05:49:16;20.27;;;5.90;;
34832;SDS011;55941;50.800;4.342;2022-07-22T05:51:41;22.52;;;6.10;;
34832;SDS011;55941;50.800;4.342;2022-07-22T05:54:07;25.30;;;6.57;;
34832;SDS011;55941;50.800;4.342;2022-07-22T05:56:33;22.23;;;6.57;;
34832;SDS011;55941;50.800;4.342;2022-07-22T05:58:58;24.23;;;6.30;;
34832;SDS011;55941;50.800;4.342;2022-07-22T06:01:24;21.17;;;6.65;;
34832;SDS011;55941;50.800;4.342;2022-07-22T06:03:50;16.50;;;6.55;;
34832;SDS011;55941;50.800;4.342;2022-07-22T06:06:16;22.55;;;7.03;;
34832;SDS011;55941;50.800;4.342;2022-07-22T06:08:42;32.30;;;7.47;;
34832;SDS011;55941;50.800;4.342;2022-07-22T06:11:08;19.60;;;6.25;;
34832;SDS011;55941;50.800;4.342;2022-07-22T06:13:33;21.15;;;7.05;;
34832;SDS011;55941;50.800;4.342;2022-07-22T06:15:59;24.55;;;7.57;;
34832;SDS011;55941;50.800;4.342;2022-07-22T06:18:25;22.20;;;7.22;;
34832;SDS011;55941;50.800;4.342;2022-07-22T06:20:51;15.95;;;6.32;;
34832;SDS011;55941;50.800;4.342;2022-07-22T06:23:17;17.67;;;6.13;;
34832;SDS011;55941;50.800;4.342;2022-07-22T06:25:43;15.98;;;5.47;;
34832;SDS011;55941;50.800;4.342;2022-07-22T06:28:09;19.80;;;5.90;;
34832;SDS011;55941;50.800;4.342;2022-07-22T06:30:36;22.35;;;6.13;;
34832;SDS011;55941;50.800;4.342;2022-07-22T06:33:02;16.00;;;4.97;;
34832;SDS011;55941;50.800;4.342;2022-07-22T06:35:28;14.07;;;4.60;;
34832;SDS011;55941;50.800;4.342;2022-07-22T06:37:54;15.82;;;4.10;;
34832;SDS011;55941;50.800;4.342;2022-07-22T06:40:19;13.43;;;4.40;;
34832;SDS011;55941;50.800;4.342;2022-07-22T06:42:45;14.95;;;4.03;;
34832;SDS011;55941;50.800;4.342;2022-07-22T06:45:11;14.68;;;3.80;;
34832;SDS011;55941;50.800;4.342;2022-07-22T06:47:36;15.82;;;3.97;;
34832;SDS011;55941;50.800;4.342;2022-07-22T06:50:03;14.38;;;4.18;;
34832;SDS011;55941;50.800;4.342;2022-07-22T06:52:29;18.58;;;4.38;;
34832;SDS011;55941;50.800;4.342;2022-07-22T06:54:55;17.88;;;3.97;;
34832;SDS011;55941;50.800;4.342;2022-07-22T06:57:21;14.00;;;3.63;;
34832;SDS011;55941;50.800;4.342;2022-07-22T06:59:47;23.10;;;4.10;;
34832;SDS011;55941;50.800;4.342;2022-07-22T07:02:12;15.07;;;3.65;;
34832;SDS011;55941;50.800;4.342;2022-07-22T07:04:38;13.90;;;3.33;;
34832;SDS011;55941;50.800;4.342;2022-07-22T07:07:04;13.05;;;2.95;;
34832;SDS011;55941;50.800;4.342;2022-07-22T07:09:30;11.95;;;2.92;;
34832;SDS011;55941;50.800;4.342;2022-07-22T07:11:57;7.63;;;2.50;;
34832;SDS011;55941;50.800;4.342;2022-07-22T07:14:23;10.25;;;2.22;;
34832;SDS011;55941;50.800;4.342;2022-07-22T07:16:48;7.18;;;2.33;;
34832;SDS011;55941;50.800;4.342;2022-07-22T07:19:14;9.43;;;2.50;;
34832;SDS011;55941;50.800;4.342;2022-07-22T07:21:40;15.85;;;2.60;;
34832;SDS011;55941;50.800;4.342;2022-07-22T07:24:06;16.05;;;3.05;;
34832;SDS011;55941;50.800;4.342;2022-07-22T07:26:31;8.30;;;2.47;;
34832;SDS011;55941;50.800;4.342;2022-07-22T07:28:57;12.55;;;2.83;;
34832;SDS011;55941;50.800;4.342;2022-07-22T07:31:23;9.43;;;3.17;;
34832;SDS011;55941;50.800;4.342;2022-07-22T07:33:49;6.75;;;3.08;;
34832;SDS011;55941;50.800;4.342;2022-07-22T07:36:15;11.48;;;2.95;;
34832;SDS011;55941;50.800;4.342;2022-07-22T07:38:41;10.45;;;3.10;;
34832;SDS011;55941;50.800;4.342;2022-07-22T07:41:07;6.70;;;3.10;;
34832;SDS011;55941;50.800;4.342;2022-07-22T07:43:33;10.70;;;2.80;;
34832;SDS011;55941;50.800;4.342;2022-07-22T07:45:59;8.05;;;2.58;;
34832;SDS011;55941;50.800;4.342;2022-07-22T07:48:25;14.68;;;3.30;;
34832;SDS011;55941;50.800;4.342;2022-07-22T07:50:50;8.30;;;3.20;;
34832;SDS011;55941;50.800;4.342;2022-07-22T07:53:16;7.07;;;2.90;;
34832;SDS011;55941;50.800;4.342;2022-07-22T07:55:42;7.32;;;2.55;;
34832;SDS011;55941;50.800;4.342;2022-07-22T07:58:09;12.18;;;3.33;;
34832;SDS011;55941;50.800;4.342;2022-07-22T08:00:37;5.57;;;2.53;;
34832;SDS011;55941;50.800;4.342;2022-07-22T08:03:04;6.57;;;2.63;;
34832;SDS011;55941;50.800;4.342;2022-07-22T08:05:30;8.45;;;2.65;;
34832;SDS011;55941;50.800;4.342;2022-07-22T08:07:56;7.80;;;2.63;;
34832;SDS011;55941;50.800;4.342;2022-07-22T08:10:22;10.52;;;3.10;;
34832;SDS011;55941;50.800;4.342;2022-07-22T08:12:48;7.65;;;2.78;;
34832;SDS011;55941;50.800;4.342;2022-07-22T08:15:15;9.75;;;2.72;;
34832;SDS011;55941;50.800;4.342;2022-07-22T08:17:41;11.63;;;3.20;;
34832;SDS011;55941;50.800;4.342;2022-07-22T08:20:08;19.42;;;8.85;;
34832;SDS011;55941;50.800;4.342;2022-07-22T08:22:34;9.60;;;3.22;;
34832;SDS011;55941;50.800;4.342;2022-07-22T08:24:59;7.65;;;2.95;;
34832;SDS011;55941;50.800;4.342;2022-07-22T08:27:25;10.20;;;2.60;;
34832;SDS011;55941;50.800;4.342;2022-07-22T08:29:51;10.63;;;2.60;;
34832;SDS011;55941;50.800;4.342;2022-07-22T08:32:17;12.05;;;3.10;;
34832;SDS011;55941;50.800;4.342;2022-07-22T08:34:42;10.65;;;3.10;;
34832;SDS011;55941;50.800;4.342;2022-07-22T08:37:08;9.25;;;2.97;;
34832;SDS011;55941;50.800;4.342;2022-07-22T08:39:35;15.23;;;3.28;;
34832;SDS011;55941;50.800;4.342;2022-07-22T08:42:01;9.60;;;2.85;;
34832;SDS011;55941;50.800;4.342;2022-07-22T08:44:30;10.38;;;3.03;;
34832;SDS011;55941;50.800;4.342;2022-07-22T08:47:01;12.13;;;3.17;;
34832;SDS011;55941;50.800;4.342;2022-07-22T08:49:27;8.85;;;2.75;;
34832;SDS011;55941;50.800;4.342;2022-07-22T08:51:53;17.90;;;7.07;;
34832;SDS011;55941;50.800;4.342;2022-07-22T08:54:19;10.60;;;3.42;;
34832;SDS011;55941;50.800;4.342;2022-07-22T08:56:49;9.77;;;3.60;;
34832;SDS011;55941;50.800;4.342;2022-07-22T08:59:15;8.20;;;2.85;;
34832;SDS011;55941;50.800;4.342;2022-07-22T09:04:53;15.00;;;3.20;;
34832;SDS011;55941;50.800;4.342;2022-07-22T09:07:26;8.57;;;2.47;;
34832;SDS011;55941;50.800;4.342;2022-07-22T09:09:56;10.43;;;2.85;;
34832;SDS011;55941;50.800;4.342;2022-07-22T09:12:23;11.32;;;3.13;;
34832;SDS011;55941;50.800;4.342;2022-07-22T09:14:52;16.70;;;2.95;;
34832;SDS011;55941;50.800;4.342;2022-07-22T09:17:37;11.00;;;3.28;;
34832;SDS011;55941;50.800;4.342;2022-07-22T09:20:25;12.57;;;3.05;;
34832;SDS011;55941;50.800;4.342;2022-07-22T09:22:50;11.20;;;2.75;;
34832;SDS011;55941;50.800;4.342;2022-07-22T09:27:48;14.40;;;3.10;;
34832;SDS011;55941;50.800;4.342;2022-07-22T09:30:22;8.45;;;2.85;;
34832;SDS011;55941;50.800;4.342;2022-07-22T09:32:50;11.98;;;3.00;;
34832;SDS011;55941;50.800;4.342;2022-07-22T09:35:17;8.40;;;3.00;;
34832;SDS011;55941;50.800;4.342;2022-07-22T09:37:50;6.90;;;3.00;;
34832;SDS011;55941;50.800;4.342;2022-07-22T09:40:16;14.70;;;3.15;;
34832;SDS011;55941;50.800;4.342;2022-07-22T09:42:51;5.22;;;2.55;;
34832;SDS011;55941;50.800;4.342;2022-07-22T09:45:23;6.63;;;2.55;;
34832;SDS011;55941;50.800;4.342;2022-07-22T09:47:53;6.85;;;2.45;;
34832;SDS011;55941;50.800;4.342;2022-07-22T09:50:24;7.18;;;2.67;;
34832;SDS011;55941;50.800;4.342;2022-07-22T09:52:55;7.88;;;2.78;;
34832;SDS011;55941;50.800;4.342;2022-07-22T09:55:23;10.43;;;2.80;;
34832;SDS011;55941;50.800;4.342;2022-07-22T09:57:50;6.30;;;2.90;;
34832;SDS011;55941;50.800;4.342;2022-07-22T10:00:18;9.13;;;2.80;;
34832;SDS011;55941;50.800;4.342;2022-07-22T10:02:46;12.40;;;3.10;;
34832;SDS011;55941;50.800;4.342;2022-07-22T10:05:19;9.13;;;2.45;;
34832;SDS011;55941;50.800;4.342;2022-07-22T10:07:47;7.18;;;2.28;;
34832;SDS011;55941;50.800;4.342;2022-07-22T10:10:15;8.45;;;2.78;;
34832;SDS011;55941;50.800;4.342;2022-07-22T10:12:42;9.00;;;2.50;;
34832;SDS011;55941;50.800;4.342;2022-07-22T10:15:09;7.88;;;2.80;;
34832;SDS011;55941;50.800;4.342;2022-07-22T10:17:43;8.15;;;2.47;;
34832;SDS011;55941;50.800;4.342;2022-07-22T10:20:13;8.95;;;2.70;;
34832;SDS011;55941;50.800;4.342;2022-07-22T10:25:10;4.57;;;2.25;;
34832;SDS011;55941;50.800;4.342;2022-07-22T10:30:15;6.18;;;2.33;;
34832;SDS011;55941;50.800;4.342;2022-07-22T10:32:43;9.07;;;2.83;;
34832;SDS011;55941;50.800;4.342;2022-07-22T10:43:11;6.95;;;2.35;;
34832;SDS011;55941;50.800;4.342;2022-07-22T10:45:47;9.70;;;2.42;;
34832;SDS011;55941;50.800;4.342;2022-07-22T10:53:56;4.55;;;2.05;;
34832;SDS011;55941;50.800;4.342;2022-07-22T10:56:23;14.63;;;2.75;;
34832;SDS011;55941;50.800;4.342;2022-07-22T11:01:43;4.85;;;2.28;;
34832;SDS011;55941;50.800;4.342;2022-07-22T11:04:18;10.38;;;2.00;;
34832;SDS011;55941;50.800;4.342;2022-07-22T11:06:44;6.90;;;2.25;;
34832;SDS011;55941;50.800;4.342;2022-07-22T11:09:11;9.18;;;2.22;;
34832;SDS011;55941;50.800;4.342;2022-07-22T11:14:14;8.73;;;2.47;;
34832;SDS011;55941;50.800;4.342;2022-07-22T11:16:43;10.68;;;3.13;;
34832;SDS011;55941;50.800;4.342;2022-07-22T11:19:10;9.60;;;2.88;;
34832;SDS011;55941;50.800;4.342;2022-07-22T11:21:36;7.03;;;2.33;;
34832;SDS011;55941;50.800;4.342;2022-07-22T11:24:03;6.00;;;1.88;;
34832;SDS011;55941;50.800;4.342;2022-07-22T11:26:42;7.45;;;2.22;;
34832;SDS011;55941;50.800;4.342;2022-07-22T11:29:10;5.75;;;2.00;;
34832;SDS011;55941;50.800;4.342;2022-07-22T11:34:13;7.22;;;2.30;;
34832;SDS011;55941;50.800;4.342;2022-07-22T11:36:41;7.13;;;2.53;;
34832;SDS011;55941;50.800;4.342;2022-07-22T11:39:09;12.70;;;2.92;;
34832;SDS011;55941;50.800;4.342;2022-07-22T11:41:36;8.75;;;2.40;;
34832;SDS011;55941;50.800;4.342;2022-07-22T11:44:03;6.65;;;2.47;;
34832;SDS011;55941;50.800;4.342;2022-07-22T11:46:34;6.15;;;2.03;;
34832;SDS011;55941;50.800;4.342;2022-07-22T11:49:03;8.10;;;2.45;;
34832;SDS011;55941;50.800;4.342;2022-07-22T11:51:30;11.35;;;2.47;;
34832;SDS011;55941;50.800;4.342;2022-07-22T11:53:57;8.45;;;2.40;;
34832;SDS011;55941;50.800;4.342;2022-07-22T11:56:24;9.48;;;2.42;;
34832;SDS011;55941;50.800;4.342;2022-07-22T11:58:50;11.20;;;2.35;;
34832;SDS011;55941;50.800;4.342;2022-07-22T12:01:21;7.05;;;2.67;;
34832;SDS011;55941;50.800;4.342;2022-07-22T12:03:51;9.82;;;2.42;;
34832;SDS011;55941;50.800;4.342;2022-07-22T12:06:27;7.07;;;2.30;;
34832;SDS011;55941;50.800;4.342;2022-07-22T12:11:20;6.45;;;2.13;;
34832;SDS011;55941;50.800;4.342;2022-07-22T12:13:49;5.15;;;2.28;;
34832;SDS011;55941;50.800;4.342;2022-07-22T12:16:26;8.30;;;2.45;;
34832;SDS011;55941;50.800;4.342;2022-07-22T12:19:05;8.48;;;2.22;;
34832;SDS011;55941;50.800;4.342;2022-07-22T12:21:37;8.43;;;2.72;;
34832;SDS011;55941;50.800;4.342;2022-07-22T12:24:15;5.45;;;2.45;;
34832;SDS011;55941;50.800;4.342;2022-07-22T12:26:41;6.10;;;2.70;;
34832;SDS011;55941;50.800;4.342;2022-07-22T12:29:16;9.85;;;2.70;;
34832;SDS011;55941;50.800;4.342;2022-07-22T12:31:43;7.20;;;2.25;;
34832;SDS011;55941;50.800;4.342;2022-07-22T12:34:10;5.72;;;2.33;;
34832;SDS011;55941;50.800;4.342;2022-07-22T12:36:37;7.25;;;2.40;;
34832;SDS011;55941;50.800;4.342;2022-07-22T12:39:13;8.07;;;2.38;;
34832;SDS011;55941;50.800;4.342;2022-07-22T12:41:49;7.63;;;2.78;;
34832;SDS011;55941;50.800;4.342;2022-07-22T12:44:20;5.18;;;2.20;;
34832;SDS011;55941;50.800;4.342;2022-07-22T12:46:49;7.97;;;2.70;;
34832;SDS011;55941;50.800;4.342;2022-07-22T12:49:18;9.73;;;2.45;;
34832;SDS011;55941;50.800;4.342;2022-07-22T12:52:05;9.50;;;3.25;;
34832;SDS011;55941;50.800;4.342;2022-07-22T12:54:34;7.97;;;2.65;;
34832;SDS011;55941;50.800;4.342;2022-07-22T12:57:01;8.65;;;2.80;;
34832;SDS011;55941;50.800;4.342;2022-07-22T12:59:27;7.75;;;2.67;;
34832;SDS011;55941;50.800;4.342;2022-07-22T13:01:53;7.57;;;2.40;;
34832;SDS011;55941;50.800;4.342;2022-07-22T13:04:18;5.10;;;2.35;;
34832;SDS011;55941;50.800;4.342;2022-07-22T13:06:45;6.80;;;2.80;;
34832;SDS011;55941;50.800;4.342;2022-07-22T13:09:11;8.32;;;2.28;;
34832;SDS011;55941;50.800;4.342;2022-07-22T13:11:37;6.63;;;2.75;;
34832;SDS011;55941;50.800;4.342;2022-07-22T13:14:09;7.53;;;2.47;;
34832;SDS011;55941;50.800;4.342;2022-07-22T13:16:37;9.43;;;2.55;;
34832;SDS011;55941;50.800;4.342;2022-07-22T13:19:03;5.97;;;2.58;;
34832;SDS011;55941;50.800;4.342;2022-07-22T13:21:29;6.45;;;2.40;;
34832;SDS011;55941;50.800;4.342;2022-07-22T13:23:55;7.05;;;2.22;;
34832;SDS011;55941;50.800;4.342;2022-07-22T13:26:20;5.57;;;2.20;;
34832;SDS011;55941;50.800;4.342;2022-07-22T13:28:46;10.52;;;2.42;;
34832;SDS011;55941;50.800;4.342;2022-07-22T13:31:12;7.60;;;2.50;;
34832;SDS011;55941;50.800;4.342;2022-07-22T13:33:38;6.90;;;2.67;;
34832;SDS011;55941;50.800;4.342;2022-07-22T13:36:04;6.80;;;2.72;;
34832;SDS011;55941;50.800;4.342;2022-07-22T13:38:30;5.85;;;2.67;;
34832;SDS011;55941;50.800;4.342;2022-07-22T13:40:56;9.88;;;2.40;;
34832;SDS011;55941;50.800;4.342;2022-07-22T13:43:23;6.13;;;2.90;;
34832;SDS011;55941;50.800;4.342;2022-07-22T13:45:50;9.32;;;2.45;;
34832;SDS011;55941;50.800;4.342;2022-07-22T13:48:16;5.85;;;2.72;;
34832;SDS011;55941;50.800;4.342;2022-07-22T13:50:45;7.88;;;3.22;;
34832;SDS011;55941;50.800;4.342;2022-07-22T13:53:12;14.18;;;3.08;;
34832;SDS011;55941;50.800;4.342;2022-07-22T13:55:38;8.10;;;2.90;;
34832;SDS011;55941;50.800;4.342;2022-07-22T13:58:05;14.43;;;6.90;;
34832;SDS011;55941;50.800;4.342;2022-07-22T14:00:32;7.63;;;3.08;;
34832;SDS011;55941;50.800;4.342;2022-07-22T14:02:58;8.07;;;2.78;;
34832;SDS011;55941;50.800;4.342;2022-07-22T14:05:26;5.20;;;2.67;;
34832;SDS011;55941;50.800;4.342;2022-07-22T14:07:51;7.43;;;2.70;;
34832;SDS011;55941;50.800;4.342;2022-07-22T14:10:17;7.15;;;2.60;;
34832;SDS011;55941;50.800;4.342;2022-07-22T14:12:43;7.55;;;2.80;;
34832;SDS011;55941;50.800;4.342;2022-07-22T14:15:11;8.80;;;3.13;;
34832;SDS011;55941;50.800;4.342;2022-07-22T14:17:39;6.15;;;2.53;;
34832;SDS011;55941;50.800;4.342;2022-07-22T14:20:05;5.88;;;2.65;;
34832;SDS011;55941;50.800;4.342;2022-07-22T14:22:36;10.13;;;2.42;;
34832;SDS011;55941;50.800;4.342;2022-07-22T14:25:02;10.50;;;2.53;;
34832;SDS011;55941;50.800;4.342;2022-07-22T14:27:28;8.57;;;2.75;;
34832;SDS011;55941;50.800;4.342;2022-07-22T14:29:54;6.22;;;2.35;;
34832;SDS011;55941;50.800;4.342;2022-07-22T14:32:20;8.50;;;2.60;;
34832;SDS011;55941;50.800;4.342;2022-07-22T14:34:46;11.35;;;2.70;;
34832;SDS011;55941;50.800;4.342;2022-07-22T14:37:12;9.57;;;3.42;;
34832;SDS011;55941;50.800;4.342;2022-07-22T14:39:39;9.23;;;2.63;;
34832;SDS011;55941;50.800;4.342;2022-07-22T14:42:04;5.95;;;2.55;;
34832;SDS011;55941;50.800;4.342;2022-07-22T14:44:30;14.85;;;2.70;;
34832;SDS011;55941;50.800;4.342;2022-07-22T14:46:56;7.05;;;2.88;;
34832;SDS011;55941;50.800;4.342;2022-07-22T14:49:22;6.03;;;2.63;;
34832;SDS011;55941;50.800;4.342;2022-07-22T14:51:49;5.40;;;2.78;;
34832;SDS011;55941;50.800;4.342;2022-07-22T14:54:15;7.47;;;2.63;;
34832;SDS011;55941;50.800;4.342;2022-07-22T14:56:40;9.30;;;2.88;;
34832;SDS011;55941;50.800;4.342;2022-07-22T15:01:36;9.88;;;3.10;;
34832;SDS011;55941;50.800;4.342;2022-07-22T15:04:02;9.35;;;3.00;;
34832;SDS011;55941;50.800;4.342;2022-07-22T15:06:31;8.45;;;3.13;;
34832;SDS011;55941;50.800;4.342;2022-07-22T15:08:56;6.20;;;2.60;;
34832;SDS011;55941;50.800;4.342;2022-07-22T15:11:22;7.80;;;2.83;;
34832;SDS011;55941;50.800;4.342;2022-07-22T15:13:48;6.80;;;2.45;;